If you wish to contribute or participate in the discussions about articles you are invited to join SKYbrary as a registered user

 Actions

Kadena Air Base

From SKYbrary Wiki

RODN
Airport
ICAO: RODN – IATA: DNA
Summary
Name Kadena Air Base
Region Asia and Pacific
Territory Japan JP.gif
Location Kadena, Okinawa
Serving Kadena
Elevation 44.501 m
146 ft
146 ft44.501 m
Type large airport
Coordinates 26° 21' 20.20" N, 127° 46' 3.48" E
Runways
Designator Length Width Surface ROPS
05L/23R 3688 m12,099.738 ft
91 m298.556 ft
ASP yes/yes
05R/23L 3688 m12,099.738 ft
61 m200.131 ft
CON yes/yes


METAR
Observation RODN 140256Z AUTO 02004KT 10SM SCT015 SCT021 BKN050 BKN180 28/24 A2999 RMK AO2 SLP161 60001 T02840241 58003 $
Station Kadena Ab
Date/Time 14 October 2019 02:56:00
Wind direction 20°
Wind speed 04 kts
Lowest cloud amount scattered clouds
Temperature 28.4°C
Dew point 24.1°C
Humidity 77%
QNH hPa
Weather condition n/a